sensor_id;sensor_type;location;lat;lon;timestamp;P1;durP1;ratioP1;P2;durP2;ratioP2
14992;SDS011;7592;51.088;13.732;2024-02-23T00:01:27;0.87;;;0.87;;
14992;SDS011;7592;51.088;13.732;2024-02-23T00:06:19;0.93;;;0.93;;
14992;SDS011;7592;51.088;13.732;2024-02-23T00:11:11;0.90;;;0.90;;
14992;SDS011;7592;51.088;13.732;2024-02-23T00:16:04;0.70;;;0.70;;
14992;SDS011;7592;51.088;13.732;2024-02-23T00:20:56;1.10;;;1.03;;
14992;SDS011;7592;51.088;13.732;2024-02-23T00:25:48;0.80;;;0.80;;
14992;SDS011;7592;51.088;13.732;2024-02-23T00:30:41;0.60;;;0.60;;
14992;SDS011;7592;51.088;13.732;2024-02-23T00:35:32;1.20;;;0.60;;
14992;SDS011;7592;51.088;13.732;2024-02-23T00:40:25;0.63;;;0.60;;
14992;SDS011;7592;51.088;13.732;2024-02-23T00:45:17;0.60;;;0.60;;
14992;SDS011;7592;51.088;13.732;2024-02-23T00:50:09;0.70;;;0.70;;
14992;SDS011;7592;51.088;13.732;2024-02-23T00:55:03;2.90;;;0.40;;
14992;SDS011;7592;51.088;13.732;2024-02-23T00:59:56;0.57;;;0.50;;
14992;SDS011;7592;51.088;13.732;2024-02-23T01:04:48;0.23;;;0.23;;
14992;SDS011;7592;51.088;13.732;2024-02-23T01:09:40;2.63;;;0.40;;
14992;SDS011;7592;51.088;13.732;2024-02-23T01:14:33;0.30;;;0.30;;
14992;SDS011;7592;51.088;13.732;2024-02-23T01:19:25;0.87;;;0.23;;
14992;SDS011;7592;51.088;13.732;2024-02-23T01:24:17;0.20;;;0.20;;
14992;SDS011;7592;51.088;13.732;2024-02-23T01:29:09;1.30;;;0.40;;
14992;SDS011;7592;51.088;13.732;2024-02-23T01:34:01;0.30;;;0.30;;
14992;SDS011;7592;51.088;13.732;2024-02-23T01:38:53;0.37;;;0.20;;
14992;SDS011;7592;51.088;13.732;2024-02-23T01:43:46;0.67;;;0.20;;
14992;SDS011;7592;51.088;13.732;2024-02-23T01:48:38;0.30;;;0.20;;
14992;SDS011;7592;51.088;13.732;2024-02-23T01:53:31;0.20;;;0.20;;
14992;SDS011;7592;51.088;13.732;2024-02-23T01:58:26;0.20;;;0.20;;
14992;SDS011;7592;51.088;13.732;2024-02-23T02:03:20;0.20;;;0.20;;
14992;SDS011;7592;51.088;13.732;2024-02-23T02:08:12;0.10;;;0.10;;
14992;SDS011;7592;51.088;13.732;2024-02-23T02:13:05;0.23;;;0.20;;
14992;SDS011;7592;51.088;13.732;2024-02-23T02:17:58;0.30;;;0.30;;
14992;SDS011;7592;51.088;13.732;2024-02-23T02:22:50;0.20;;;0.20;;
14992;SDS011;7592;51.088;13.732;2024-02-23T02:27:43;0.20;;;0.20;;
14992;SDS011;7592;51.088;13.732;2024-02-23T02:32:37;0.20;;;0.20;;
14992;SDS011;7592;51.088;13.732;2024-02-23T02:37:31;0.20;;;0.10;;
14992;SDS011;7592;51.088;13.732;2024-02-23T02:42:24;0.20;;;0.20;;
14992;SDS011;7592;51.088;13.732;2024-02-23T02:47:18;1.43;;;0.37;;
14992;SDS011;7592;51.088;13.732;2024-02-23T02:58:58;0.73;;;0.40;;
14992;SDS011;7592;51.088;13.732;2024-02-23T03:03:51;2.63;;;0.30;;
14992;SDS011;7592;51.088;13.732;2024-02-23T03:08:44;1.13;;;0.30;;
14992;SDS011;7592;51.088;13.732;2024-02-23T03:13:37;0.30;;;0.20;;
14992;SDS011;7592;51.088;13.732;2024-02-23T03:18:30;0.93;;;0.20;;
14992;SDS011;7592;51.088;13.732;2024-02-23T03:23:23;2.47;;;0.30;;
14992;SDS011;7592;51.088;13.732;2024-02-23T03:28:16;0.77;;;0.20;;
14992;SDS011;7592;51.088;13.732;2024-02-23T03:33:08;0.83;;;0.20;;
14992;SDS011;7592;51.088;13.732;2024-02-23T03:38:01;0.17;;;0.10;;
14992;SDS011;7592;51.088;13.732;2024-02-23T03:42:54;1.23;;;0.40;;
14992;SDS011;7592;51.088;13.732;2024-02-23T03:47:47;1.03;;;0.27;;
14992;SDS011;7592;51.088;13.732;2024-02-23T03:52:40;0.87;;;0.23;;
14992;SDS011;7592;51.088;13.732;2024-02-23T03:57:33;1.10;;;0.20;;
14992;SDS011;7592;51.088;13.732;2024-02-23T04:02:25;1.07;;;0.10;;
14992;SDS011;7592;51.088;13.732;2024-02-23T04:07:17;0.73;;;0.10;;
14992;SDS011;7592;51.088;13.732;2024-02-23T04:12:09;2.30;;;0.30;;
14992;SDS011;7592;51.088;13.732;2024-02-23T04:17:02;0.50;;;0.20;;
14992;SDS011;7592;51.088;13.732;2024-02-23T04:21:55;0.10;;;0.10;;
14992;SDS011;7592;51.088;13.732;2024-02-23T04:26:47;0.20;;;0.10;;
14992;SDS011;7592;51.088;13.732;2024-02-23T04:31:39;0.30;;;0.23;;
14992;SDS011;7592;51.088;13.732;2024-02-23T04:36:31;1.23;;;0.30;;
14992;SDS011;7592;51.088;13.732;2024-02-23T04:41:23;2.17;;;0.10;;
14992;SDS011;7592;51.088;13.732;2024-02-23T04:46:16;0.63;;;0.20;;
14992;SDS011;7592;51.088;13.732;2024-02-23T04:51:08;0.23;;;0.20;;
14992;SDS011;7592;51.088;13.732;2024-02-23T04:56:03;0.20;;;0.20;;
14992;SDS011;7592;51.088;13.732;2024-02-23T05:00:56;0.53;;;0.23;;
14992;SDS011;7592;51.088;13.732;2024-02-23T05:05:49;0.97;;;0.30;;
14992;SDS011;7592;51.088;13.732;2024-02-23T05:10:46;0.70;;;0.20;;
14992;SDS011;7592;51.088;13.732;2024-02-23T05:15:39;0.67;;;0.17;;
14992;SDS011;7592;51.088;13.732;2024-02-23T05:20:34;0.37;;;0.20;;
14992;SDS011;7592;51.088;13.732;2024-02-23T05:25:27;1.87;;;0.40;;
14992;SDS011;7592;51.088;13.732;2024-02-23T05:30:22;0.83;;;0.20;;
14992;SDS011;7592;51.088;13.732;2024-02-23T05:35:15;0.30;;;0.20;;
14992;SDS011;7592;51.088;13.732;2024-02-23T05:40:10;3.17;;;0.23;;
14992;SDS011;7592;51.088;13.732;2024-02-23T05:45:03;0.87;;;0.60;;
14992;SDS011;7592;51.088;13.732;2024-02-23T05:50:02;0.37;;;0.30;;
14992;SDS011;7592;51.088;13.732;2024-02-23T05:54:57;0.20;;;0.20;;
14992;SDS011;7592;51.088;13.732;2024-02-23T05:59:51;1.70;;;0.40;;
14992;SDS011;7592;51.088;13.732;2024-02-23T06:04:44;1.47;;;0.30;;
14992;SDS011;7592;51.088;13.732;2024-02-23T06:15:19;1.63;;;0.97;;
14992;SDS011;7592;51.088;13.732;2024-02-23T06:20:12;1.17;;;0.30;;
14992;SDS011;7592;51.088;13.732;2024-02-23T06:25:05;2.43;;;0.57;;
14992;SDS011;7592;51.088;13.732;2024-02-23T06:29:58;0.50;;;0.40;;
14992;SDS011;7592;51.088;13.732;2024-02-23T06:34:51;0.33;;;0.30;;
14992;SDS011;7592;51.088;13.732;2024-02-23T06:39:45;0.20;;;0.20;;
14992;SDS011;7592;51.088;13.732;2024-02-23T06:44:43;1.37;;;0.37;;
14992;SDS011;7592;51.088;13.732;2024-02-23T06:49:35;1.27;;;0.30;;
14992;SDS011;7592;51.088;13.732;2024-02-23T06:54:28;0.83;;;0.47;;
14992;SDS011;7592;51.088;13.732;2024-02-23T06:59:21;1.90;;;0.40;;
14992;SDS011;7592;51.088;13.732;2024-02-23T07:04:16;1.70;;;0.20;;
14992;SDS011;7592;51.088;13.732;2024-02-23T07:09:09;0.93;;;0.37;;
14992;SDS011;7592;51.088;13.732;2024-02-23T07:14:03;3.80;;;0.90;;
14992;SDS011;7592;51.088;13.732;2024-02-23T07:18:55;1.30;;;0.40;;
14992;SDS011;7592;51.088;13.732;2024-02-23T07:23:48;3.50;;;0.40;;
14992;SDS011;7592;51.088;13.732;2024-02-23T07:28:40;0.60;;;0.20;;
14992;SDS011;7592;51.088;13.732;2024-02-23T07:33:32;0.83;;;0.23;;
14992;SDS011;7592;51.088;13.732;2024-02-23T07:38:25;0.10;;;0.10;;
14992;SDS011;7592;51.088;13.732;2024-02-23T07:43:17;1.63;;;0.60;;
14992;SDS011;7592;51.088;13.732;2024-02-23T07:48:09;1.20;;;0.33;;
14992;SDS011;7592;51.088;13.732;2024-02-23T07:53:01;2.03;;;0.67;;
14992;SDS011;7592;51.088;13.732;2024-02-23T07:57:56;1.40;;;0.40;;
14992;SDS011;7592;51.088;13.732;2024-02-23T08:02:53;0.50;;;0.20;;
14992;SDS011;7592;51.088;13.732;2024-02-23T08:07:49;0.90;;;0.30;;
14992;SDS011;7592;51.088;13.732;2024-02-23T08:12:41;1.50;;;0.50;;
14992;SDS011;7592;51.088;13.732;2024-02-23T08:17:35;1.57;;;0.30;;
14992;SDS011;7592;51.088;13.732;2024-02-23T08:22:28;1.30;;;0.40;;
14992;SDS011;7592;51.088;13.732;2024-02-23T08:27:21;1.60;;;0.30;;
14992;SDS011;7592;51.088;13.732;2024-02-23T08:32:13;1.33;;;0.50;;
14992;SDS011;7592;51.088;13.732;2024-02-23T08:37:06;2.20;;;0.40;;
14992;SDS011;7592;51.088;13.732;2024-02-23T08:41:59;1.60;;;0.40;;
14992;SDS011;7592;51.088;13.732;2024-02-23T08:46:52;1.60;;;0.40;;
14992;SDS011;7592;51.088;13.732;2024-02-23T08:58:33;0.70;;;0.27;;
14992;SDS011;7592;51.088;13.732;2024-02-23T09:03:27;0.80;;;0.30;;
14992;SDS011;7592;51.088;13.732;2024-02-23T09:08:20;0.70;;;0.33;;
14992;SDS011;7592;51.088;13.732;2024-02-23T09:13:13;0.50;;;0.40;;
14992;SDS011;7592;51.088;13.732;2024-02-23T09:18:07;1.43;;;0.50;;
14992;SDS011;7592;51.088;13.732;2024-02-23T09:23:00;1.60;;;0.40;;
14992;SDS011;7592;51.088;13.732;2024-02-23T09:27:56;0.63;;;0.37;;
14992;SDS011;7592;51.088;13.732;2024-02-23T09:32:49;0.73;;;0.50;;
14992;SDS011;7592;51.088;13.732;2024-02-23T09:37:42;1.33;;;0.60;;
14992;SDS011;7592;51.088;13.732;2024-02-23T09:42:35;0.63;;;0.50;;
14992;SDS011;7592;51.088;13.732;2024-02-23T09:47:30;0.93;;;0.40;;
14992;SDS011;7592;51.088;13.732;2024-02-23T09:52:23;1.57;;;0.40;;
14992;SDS011;7592;51.088;13.732;2024-02-23T09:57:16;0.93;;;0.30;;
14992;SDS011;7592;51.088;13.732;2024-02-23T10:02:12;1.40;;;0.40;;
14992;SDS011;7592;51.088;13.732;2024-02-23T10:07:07;1.23;;;0.40;;
14992;SDS011;7592;51.088;13.732;2024-02-23T10:12:01;0.70;;;0.40;;
14992;SDS011;7592;51.088;13.732;2024-02-23T10:16:55;0.40;;;0.30;;
14992;SDS011;7592;51.088;13.732;2024-02-23T10:21:48;0.73;;;0.30;;
14992;SDS011;7592;51.088;13.732;2024-02-23T10:26:41;1.77;;;0.30;;
14992;SDS011;7592;51.088;13.732;2024-02-23T10:31:34;0.30;;;0.20;;
14992;SDS011;7592;51.088;13.732;2024-02-23T10:36:31;1.20;;;0.40;;
14992;SDS011;7592;51.088;13.732;2024-02-23T10:41:24;0.97;;;0.50;;
14992;SDS011;7592;51.088;13.732;2024-02-23T10:46:18;1.03;;;0.40;;
14992;SDS011;7592;51.088;13.732;2024-02-23T10:51:14;3.90;;;0.50;;
14992;SDS011;7592;51.088;13.732;2024-02-23T10:56:11;0.73;;;0.30;;
14992;SDS011;7592;51.088;13.732;2024-02-23T11:07:55;0.30;;;0.30;;
14992;SDS011;7592;51.088;13.732;2024-02-23T11:12:48;0.87;;;0.40;;
14992;SDS011;7592;51.088;13.732;2024-02-23T11:17:50;0.37;;;0.20;;
14992;SDS011;7592;51.088;13.732;2024-02-23T11:22:43;2.10;;;0.50;;
14992;SDS011;7592;51.088;13.732;2024-02-23T11:27:37;1.90;;;0.47;;
14992;SDS011;7592;51.088;13.732;2024-02-23T11:32:39;2.30;;;0.50;;
14992;SDS011;7592;51.088;13.732;2024-02-23T11:37:55;0.40;;;0.20;;
14992;SDS011;7592;51.088;13.732;2024-02-23T11:42:54;1.00;;;0.60;;
14992;SDS011;7592;51.088;13.732;2024-02-23T11:47:47;0.50;;;0.30;;
14992;SDS011;7592;51.088;13.732;2024-02-23T11:52:40;1.20;;;0.60;;
14992;SDS011;7592;51.088;13.732;2024-02-23T11:57:34;1.70;;;0.93;;
14992;SDS011;7592;51.088;13.732;2024-02-23T12:02:38;1.23;;;0.60;;
14992;SDS011;7592;51.088;13.732;2024-02-23T12:07:31;1.07;;;0.63;;
14992;SDS011;7592;51.088;13.732;2024-02-23T12:12:25;2.20;;;0.80;;
14992;SDS011;7592;51.088;13.732;2024-02-23T12:17:17;1.33;;;1.03;;
14992;SDS011;7592;51.088;13.732;2024-02-23T12:22:10;0.23;;;0.23;;
14992;SDS011;7592;51.088;13.732;2024-02-23T12:27:04;1.77;;;0.30;;
14992;SDS011;7592;51.088;13.732;2024-02-23T12:32:06;1.63;;;0.53;;
14992;SDS011;7592;51.088;13.732;2024-02-23T12:36:59;1.03;;;0.40;;
14992;SDS011;7592;51.088;13.732;2024-02-23T12:41:53;1.17;;;0.40;;
14992;SDS011;7592;51.088;13.732;2024-02-23T12:46:46;2.00;;;0.30;;
14992;SDS011;7592;51.088;13.732;2024-02-23T12:51:38;3.87;;;0.50;;
14992;SDS011;7592;51.088;13.732;2024-02-23T12:56:30;0.43;;;0.40;;
14992;SDS011;7592;51.088;13.732;2024-02-23T13:01:22;0.20;;;0.20;;
14992;SDS011;7592;51.088;13.732;2024-02-23T13:06:15;1.27;;;0.50;;
14992;SDS011;7592;51.088;13.732;2024-02-23T13:11:08;2.33;;;0.40;;
14992;SDS011;7592;51.088;13.732;2024-02-23T13:16:02;0.30;;;0.30;;
14992;SDS011;7592;51.088;13.732;2024-02-23T13:20:54;2.17;;;0.40;;
14992;SDS011;7592;51.088;13.732;2024-02-23T13:25:47;1.00;;;0.50;;
14992;SDS011;7592;51.088;13.732;2024-02-23T13:30:41;0.70;;;0.30;;
14992;SDS011;7592;51.088;13.732;2024-02-23T13:35:33;0.70;;;0.40;;
14992;SDS011;7592;51.088;13.732;2024-02-23T13:40:26;2.03;;;0.50;;
14992;SDS011;7592;51.088;13.732;2024-02-23T13:45:21;1.27;;;0.50;;
14992;SDS011;7592;51.088;13.732;2024-02-23T13:50:16;1.70;;;0.50;;
14992;SDS011;7592;51.088;13.732;2024-02-23T13:55:08;1.07;;;0.40;;
14992;SDS011;7592;51.088;13.732;2024-02-23T14:05:25;0.70;;;0.50;;
14992;SDS011;7592;51.088;13.732;2024-02-23T14:10:18;0.67;;;0.60;;
14992;SDS011;7592;51.088;13.732;2024-02-23T14:15:11;1.50;;;0.50;;
14992;SDS011;7592;51.088;13.732;2024-02-23T14:20:04;0.70;;;0.57;;
14992;SDS011;7592;51.088;13.732;2024-02-23T14:24:58;0.20;;;0.20;;
14992;SDS011;7592;51.088;13.732;2024-02-23T14:29:51;0.80;;;0.40;;
14992;SDS011;7592;51.088;13.732;2024-02-23T14:34:44;0.77;;;0.33;;
14992;SDS011;7592;51.088;13.732;2024-02-23T14:39:37;0.73;;;0.40;;
14992;SDS011;7592;51.088;13.732;2024-02-23T14:44:30;1.80;;;0.50;;
14992;SDS011;7592;51.088;13.732;2024-02-23T14:49:23;0.73;;;0.50;;
14992;SDS011;7592;51.088;13.732;2024-02-23T14:54:16;1.77;;;0.70;;
14992;SDS011;7592;51.088;13.732;2024-02-23T14:59:08;2.17;;;0.50;;
14992;SDS011;7592;51.088;13.732;2024-02-23T15:04:01;3.10;;;0.73;;
14992;SDS011;7592;51.088;13.732;2024-02-23T15:08:57;2.80;;;0.63;;
14992;SDS011;7592;51.088;13.732;2024-02-23T15:13:49;0.57;;;0.40;;
14992;SDS011;7592;51.088;13.732;2024-02-23T15:18:43;3.13;;;0.63;;
14992;SDS011;7592;51.088;13.732;2024-02-23T15:23:35;2.30;;;2.00;;
14992;SDS011;7592;51.088;13.732;2024-02-23T15:28:28;1.20;;;0.50;;
14992;SDS011;7592;51.088;13.732;2024-02-23T15:33:20;1.47;;;0.53;;
14992;SDS011;7592;51.088;13.732;2024-02-23T15:38:15;0.60;;;0.50;;
14992;SDS011;7592;51.088;13.732;2024-02-23T15:43:07;1.10;;;0.70;;
14992;SDS011;7592;51.088;13.732;2024-02-23T15:47:59;5.37;;;0.93;;
14992;SDS011;7592;51.088;13.732;2024-02-23T15:52:52;2.67;;;0.63;;
14992;SDS011;7592;51.088;13.732;2024-02-23T15:57:44;3.77;;;1.80;;
14992;SDS011;7592;51.088;13.732;2024-02-23T16:02:36;1.93;;;0.90;;
14992;SDS011;7592;51.088;13.732;2024-02-23T16:07:29;2.77;;;1.40;;
14992;SDS011;7592;51.088;13.732;2024-02-23T16:12:21;2.83;;;0.80;;
14992;SDS011;7592;51.088;13.732;2024-02-23T16:17:13;1.13;;;0.80;;
14992;SDS011;7592;51.088;13.732;2024-02-23T16:22:05;2.43;;;1.13;;
14992;SDS011;7592;51.088;13.732;2024-02-23T16:26:59;1.63;;;1.10;;
14992;SDS011;7592;51.088;13.732;2024-02-23T16:31:53;2.90;;;1.23;;
14992;SDS011;7592;51.088;13.732;2024-02-23T16:36:47;0.83;;;0.80;;
14992;SDS011;7592;51.088;13.732;2024-02-23T16:41:40;1.77;;;1.13;;
14992;SDS011;7592;51.088;13.732;2024-02-23T16:46:33;2.07;;;1.20;;
14992;SDS011;7592;51.088;13.732;2024-02-23T16:51:30;6.27;;;1.90;;
14992;SDS011;7592;51.088;13.732;2024-02-23T16:56:23;3.00;;;1.90;;
14992;SDS011;7592;51.088;13.732;2024-02-23T17:01:19;3.57;;;2.37;;
14992;SDS011;7592;51.088;13.732;2024-02-23T17:06:12;5.30;;;2.30;;
14992;SDS011;7592;51.088;13.732;2024-02-23T17:11:08;2.50;;;1.50;;
14992;SDS011;7592;51.088;13.732;2024-02-23T17:16:02;1.47;;;0.90;;
14992;SDS011;7592;51.088;13.732;2024-02-23T17:20:56;1.40;;;0.80;;
14992;SDS011;7592;51.088;13.732;2024-02-23T17:25:52;1.90;;;0.90;;
14992;SDS011;7592;51.088;13.732;2024-02-23T17:30:44;3.87;;;1.13;;
14992;SDS011;7592;51.088;13.732;2024-02-23T17:35:37;1.67;;;1.23;;
14992;SDS011;7592;51.088;13.732;2024-02-23T17:40:30;1.57;;;1.17;;
14992;SDS011;7592;51.088;13.732;2024-02-23T17:45:24;1.70;;;1.60;;
14992;SDS011;7592;51.088;13.732;2024-02-23T17:50:16;1.60;;;1.30;;
14992;SDS011;7592;51.088;13.732;2024-02-23T17:55:09;2.33;;;1.87;;
14992;SDS011;7592;51.088;13.732;2024-02-23T18:00:02;3.23;;;2.10;;
14992;SDS011;7592;51.088;13.732;2024-02-23T18:04:56;6.60;;;2.50;;
14992;SDS011;7592;51.088;13.732;2024-02-23T18:09:50;3.07;;;2.50;;
14992;SDS011;7592;51.088;13.732;2024-02-23T18:14:42;6.80;;;3.07;;
14992;SDS011;7592;51.088;13.732;2024-02-23T18:19:35;3.90;;;2.70;;
14992;SDS011;7592;51.088;13.732;2024-02-23T18:24:29;4.53;;;3.23;;
14992;SDS011;7592;51.088;13.732;2024-02-23T18:29:22;5.83;;;4.33;;
14992;SDS011;7592;51.088;13.732;2024-02-23T18:34:14;4.00;;;3.70;;
14992;SDS011;7592;51.088;13.732;2024-02-23T18:45:24;16.47;;;10.60;;
14992;SDS011;7592;51.088;13.732;2024-02-23T18:50:16;20.47;;;13.60;;
14992;SDS011;7592;51.088;13.732;2024-02-23T18:55:10;24.57;;;15.67;;
14992;SDS011;7592;51.088;13.732;2024-02-23T19:00:04;7.90;;;6.03;;
14992;SDS011;7592;51.088;13.732;2024-02-23T19:04:58;6.97;;;5.20;;
14992;SDS011;7592;51.088;13.732;2024-02-23T19:09:51;7.97;;;5.07;;
14992;SDS011;7592;51.088;13.732;2024-02-23T19:14:46;4.37;;;3.03;;
14992;SDS011;7592;51.088;13.732;2024-02-23T19:19:39;4.77;;;3.03;;
14992;SDS011;7592;51.088;13.732;2024-02-23T19:24:32;4.30;;;2.80;;
14992;SDS011;7592;51.088;13.732;2024-02-23T19:29:25;3.87;;;2.23;;
14992;SDS011;7592;51.088;13.732;2024-02-23T19:34:17;5.60;;;3.53;;
14992;SDS011;7592;51.088;13.732;2024-02-23T19:39:10;11.57;;;8.60;;
14992;SDS011;7592;51.088;13.732;2024-02-23T19:44:04;4.17;;;3.77;;
14992;SDS011;7592;51.088;13.732;2024-02-23T19:48:56;5.83;;;3.70;;
14992;SDS011;7592;51.088;13.732;2024-02-23T19:53:49;5.80;;;3.47;;
14992;SDS011;7592;51.088;13.732;2024-02-23T19:58:42;6.33;;;4.30;;
14992;SDS011;7592;51.088;13.732;2024-02-23T20:03:34;6.03;;;3.67;;
14992;SDS011;7592;51.088;13.732;2024-02-23T20:08:28;3.33;;;2.87;;
14992;SDS011;7592;51.088;13.732;2024-02-23T20:13:20;6.83;;;3.23;;
14992;SDS011;7592;51.088;13.732;2024-02-23T20:18:12;16.30;;;10.23;;
14992;SDS011;7592;51.088;13.732;2024-02-23T20:29:53;9.47;;;4.07;;
14992;SDS011;7592;51.088;13.732;2024-02-23T20:34:49;7.87;;;3.70;;
14992;SDS011;7592;51.088;13.732;2024-02-23T20:39:41;6.63;;;3.40;;
14992;SDS011;7592;51.088;13.732;2024-02-23T20:44:34;4.67;;;3.93;;
14992;SDS011;7592;51.088;13.732;2024-02-23T20:49:27;5.20;;;3.60;;
14992;SDS011;7592;51.088;13.732;2024-02-23T20:54:22;5.17;;;3.40;;
14992;SDS011;7592;51.088;13.732;2024-02-23T20:59:15;5.63;;;4.03;;
14992;SDS011;7592;51.088;13.732;2024-02-23T21:04:08;5.20;;;3.37;;
14992;SDS011;7592;51.088;13.732;2024-02-23T21:09:01;4.93;;;3.93;;
14992;SDS011;7592;51.088;13.732;2024-02-23T21:13:54;6.63;;;4.73;;
14992;SDS011;7592;51.088;13.732;2024-02-23T21:18:47;8.23;;;4.13;;
14992;SDS011;7592;51.088;13.732;2024-02-23T21:23:40;6.80;;;3.47;;
14992;SDS011;7592;51.088;13.732;2024-02-23T21:28:33;6.40;;;5.80;;
14992;SDS011;7592;51.088;13.732;2024-02-23T21:33:26;12.93;;;10.33;;
14992;SDS011;7592;51.088;13.732;2024-02-23T21:38:18;10.53;;;7.53;;
14992;SDS011;7592;51.088;13.732;2024-02-23T21:49:58;5.50;;;3.50;;
14992;SDS011;7592;51.088;13.732;2024-02-23T21:54:51;3.73;;;2.83;;
14992;SDS011;7592;51.088;13.732;2024-02-23T21:59:44;4.17;;;2.77;;
14992;SDS011;7592;51.088;13.732;2024-02-23T22:04:37;5.37;;;3.20;;
14992;SDS011;7592;51.088;13.732;2024-02-23T22:09:31;4.30;;;2.63;;
14992;SDS011;7592;51.088;13.732;2024-02-23T22:14:25;8.63;;;4.63;;
14992;SDS011;7592;51.088;13.732;2024-02-23T22:19:18;52.80;;;22.57;;
14992;SDS011;7592;51.088;13.732;2024-02-23T22:24:11;70.10;;;31.93;;
14992;SDS011;7592;51.088;13.732;2024-02-23T22:29:03;38.00;;;17.73;;
14992;SDS011;7592;51.088;13.732;2024-02-23T22:33:56;8.40;;;4.90;;
14992;SDS011;7592;51.088;13.732;2024-02-23T22:38:49;42.07;;;27.10;;
14992;SDS011;7592;51.088;13.732;2024-02-23T22:43:42;95.30;;;56.23;;
14992;SDS011;7592;51.088;13.732;2024-02-23T22:48:34;9.33;;;7.27;;
14992;SDS011;7592;51.088;13.732;2024-02-23T22:53:27;17.20;;;10.43;;
14992;SDS011;7592;51.088;13.732;2024-02-23T22:58:23;22.00;;;13.97;;
14992;SDS011;7592;51.088;13.732;2024-02-23T23:03:15;16.03;;;10.40;;
14992;SDS011;7592;51.088;13.732;2024-02-23T23:08:09;13.73;;;8.67;;
14992;SDS011;7592;51.088;13.732;2024-02-23T23:13:01;4.23;;;3.17;;
14992;SDS011;7592;51.088;13.732;2024-02-23T23:17:54;10.03;;;7.00;;
14992;SDS011;7592;51.088;13.732;2024-02-23T23:22:46;9.73;;;6.83;;
14992;SDS011;7592;51.088;13.732;2024-02-23T23:27:38;5.40;;;2.87;;
14992;SDS011;7592;51.088;13.732;2024-02-23T23:32:30;5.57;;;3.10;;
14992;SDS011;7592;51.088;13.732;2024-02-23T23:37:23;5.17;;;3.00;;
14992;SDS011;7592;51.088;13.732;2024-02-23T23:42:15;4.80;;;3.37;;
14992;SDS011;7592;51.088;13.732;2024-02-23T23:47:08;6.60;;;3.47;;
14992;SDS011;7592;51.088;13.732;2024-02-23T23:52:00;4.77;;;3.10;;
14992;SDS011;7592;51.088;13.732;2024-02-23T23:56:55;5.83;;;4.17;;
